Time;durP1;ratioP1;P1;durP2;ratioP2;P2;SDS_P1;SDS_P2;PMS_P1;PMS_P2;Temp;Humidity;BMP_temperature;BMP_pressure;BME280_temperature;BME280_humidity;BME280_pressure;Samples;Min_cycle;Max_cycle;Signal;HPM_P1;HPM_P2
2022/04/04 00:00:44;;;;;;;10.70;2.17;;;18.40;83.70;;;;;;4868779;28;96024;-47
2022/04/04 00:03:15;;;;;;;5.97;1.73;;;18.40;83.10;;;;;;4889369;28;95775;-48
2022/04/04 00:05:48;;;;;;;9.52;2.72;;;18.50;83.10;;;;;;4889189;28;96083;-45
2022/04/04 00:08:20;;;;;;;5.72;2.45;;;18.50;83.10;;;;;;4888824;28;95930;-46
2022/04/04 00:10:54;;;;;;;3.78;1.95;;;18.50;83.00;;;;;;4885219;28;96151;-43
2022/04/04 00:13:27;;;;;;;4.97;2.20;;;18.50;83.10;;;;;;4886828;28;95364;-49
2022/04/04 00:15:58;;;;;;;2.15;1.60;;;18.50;82.60;;;;;;4879939;28;98164;-50
2022/04/04 00:18:29;;;;;;;10.38;2.10;;;18.60;82.80;;;;;;4886362;28;95844;-51
2022/04/04 00:21:00;;;;;;;11.45;2.20;;;18.60;82.70;;;;;;4888391;28;95862;-49
2022/04/04 00:23:32;;;;;;;5.47;2.03;;;18.60;82.60;;;;;;4888726;28;95422;-49
2022/04/04 00:26:05;;;;;;;4.30;1.58;;;18.60;82.40;;;;;;4887656;28;97987;-52
2022/04/04 00:28:37;;;;;;;6.68;2.17;;;18.70;82.60;;;;;;4887832;28;95336;-52
2022/04/04 00:31:07;;;;;;;6.13;2.33;;;18.70;82.40;;;;;;4885202;28;97239;-51
2022/04/04 00:33:37;;;;;;;4.20;1.90;;;18.70;82.20;;;;;;4886834;28;96038;-52
2022/04/04 00:36:08;;;;;;;5.80;1.75;;;18.80;82.30;;;;;;4887687;28;95920;-46
2022/04/04 00:38:40;;;;;;;6.47;2.40;;;18.80;82.30;;;;;;4885937;28;95935;-49
2022/04/04 00:41:17;;;;;;;4.35;2.03;;;18.80;82.00;;;;;;4888504;28;95943;-48
2022/04/04 00:43:53;;;;;;;5.97;2.38;;;18.80;81.90;;;;;;4888158;28;95715;-50
2022/04/04 00:46:24;;;;;;;4.57;2.20;;;18.80;81.80;;;;;;4889167;28;97182;-51
2022/04/04 00:48:55;;;;;;;3.33;2.20;;;18.80;81.80;;;;;;4883910;28;96222;-50
2022/04/04 00:51:26;;;;;;;;;;;18.80;81.60;;;;;;4886065;28;96208;-44
2022/04/04 00:53:58;;;;;;;6.65;2.08;;;18.90;81.50;;;;;;4893132;28;96288;-46
2022/04/04 00:56:31;;;;;;;5.72;3.03;;;18.90;81.50;;;;;;4888890;28;97038;-45
2022/04/04 00:59:03;;;;;;;5.43;2.50;;;18.90;81.40;;;;;;4887688;28;95997;-52
2022/04/04 01:01:34;;;;;;;4.65;2.47;;;18.90;81.30;;;;;;4886513;28;96273;-47
2022/04/04 01:04:11;;;;;;;4.57;3.15;;;18.90;81.20;;;;;;4889821;28;96024;-49
2022/04/04 01:06:45;;;;;;;2.95;2.35;;;19.00;81.30;;;;;;4888192;28;96598;-51
2022/04/04 01:09:16;;;;;;;2.58;2.33;;;19.00;81.30;;;;;;4889027;28;96142;-49
2022/04/04 01:12:09;;;;;;;4.60;2.30;;;19.00;81.20;;;;;;4884137;28;96555;-49
2022/04/04 01:14:46;;;;;;;6.18;2.67;;;19.00;81.30;;;;;;4890231;28;97485;-48
2022/04/04 01:17:21;;;;;;;4.57;2.75;;;19.00;81.30;;;;;;4885398;28;96584;-47
2022/04/04 01:19:52;;;;;;;3.15;2.25;;;19.00;81.30;;;;;;4888523;28;96045;-46
2022/04/04 01:22:24;;;;;;;;;;;19.00;81.10;;;;;;4888140;28;95447;-47
2022/04/04 01:24:53;;;;;;;2.53;2.25;;;19.00;81.20;;;;;;4889262;28;96104;-49
2022/04/04 01:27:23;;;;;;;2.47;2.28;;;19.00;81.10;;;;;;4889155;28;96000;-48
2022/04/04 01:29:53;;;;;;;2.95;2.20;;;19.00;81.20;;;;;;4891806;28;95825;-50
2022/04/04 01:32:23;;;;;;;3.45;2.15;;;19.00;80.90;;;;;;4870840;28;95737;-47
2022/04/04 01:34:54;;;;;;;3.78;2.40;;;19.00;81.30;;;;;;4891434;28;95620;-47
2022/04/04 01:37:26;;;;;;;3.15;2.13;;;19.10;81.40;;;;;;4889772;28;96958;-49
2022/04/04 01:39:56;;;;;;;;;;;19.30;81.30;;;;;;4889427;28;96390;-49
2022/04/04 01:42:28;;;;;;;4.13;2.05;;;19.30;81.00;;;;;;4890740;28;95729;-54
2022/04/04 01:44:59;;;;;;;2.10;1.88;;;19.40;81.00;;;;;;4894523;28;95788;-47
2022/04/04 01:47:29;;;;;;;;;;;19.50;80.80;;;;;;4885569;28;96439;-52
2022/04/04 01:50:01;;;;;;;2.43;2.23;;;19.50;81.50;;;;;;4881375;28;97412;-49
2022/04/04 01:52:31;;;;;;;3.25;1.45;;;19.60;80.70;;;;;;4890300;28;95911;-48
2022/04/04 01:55:02;;;;;;;3.55;1.77;;;19.70;80.70;;;;;;4889884;28;95269;-48
2022/04/04 01:57:34;;;;;;;3.30;2.03;;;19.70;80.60;;;;;;4887303;28;96221;-50
2022/04/04 02:00:05;;;;;;;1.80;1.70;;;19.80;80.70;;;;;;4885623;28;95781;-49
2022/04/04 02:02:41;;;;;;;2.97;1.63;;;19.80;80.60;;;;;;4886847;28;95297;-53
2022/04/04 02:05:12;;;;;;;2.83;1.58;;;19.80;80.60;;;;;;4886377;28;95892;-51
2022/04/04 02:07:45;;;;;;;3.05;1.70;;;19.90;80.60;;;;;;4886002;28;96472;-51
2022/04/04 02:10:16;;;;;;;3.88;1.88;;;20.00;80.40;;;;;;4870921;28;97615;-49
2022/04/04 02:12:48;;;;;;;3.58;1.98;;;20.00;80.00;;;;;;4887112;28;96126;-50
2022/04/04 02:15:18;;;;;;;;;;;20.00;79.70;;;;;;4886180;28;96533;-48
2022/04/04 02:17:52;;;;;;;2.80;2.03;;;19.90;79.80;;;;;;4892290;28;102224;-54
2022/04/04 02:20:22;;;;;;;2.13;1.92;;;19.90;80.10;;;;;;4889322;28;95308;-49
2022/04/04 02:22:52;;;;;;;3.73;1.73;;;19.90;80.00;;;;;;4889219;28;98552;-53
2022/04/04 02:25:22;;;;;;;2.10;1.80;;;19.90;79.10;;;;;;4888419;28;95451;-52
2022/04/04 02:27:53;;;;;;;4.45;2.50;;;19.90;79.10;;;;;;4888619;28;97727;-52
2022/04/04 02:30:22;;;;;;;1.73;1.63;;;19.80;79.10;;;;;;4883432;28;97231;-48
2022/04/04 02:32:53;;;;;;;1.90;1.80;;;19.70;79.00;;;;;;4887732;28;95809;-52
2022/04/04 02:35:26;;;;;;;2.63;2.10;;;19.70;79.10;;;;;;4886198;28;97133;-51
2022/04/04 02:38:02;;;;;;;2.80;1.92;;;19.70;79.10;;;;;;4887826;28;95879;-48
2022/04/04 02:40:34;;;;;;;2.95;1.92;;;19.70;68.80;;;;;;4887651;28;95778;-49
2022/04/04 02:43:08;;;;;;;1.80;1.42;;;19.70;79.90;;;;;;4888367;28;95650;-46
2022/04/04 02:45:39;;;;;;;1.88;1.60;;;19.80;79.20;;;;;;4883759;28;97006;-54
2022/04/04 02:48:11;;;;;;;2.72;2.03;;;19.90;79.50;;;;;;4882696;28;96486;-54
2022/04/04 02:50:43;;;;;;;2.35;1.70;;;20.00;79.30;;;;;;4880160;28;96444;-49
2022/04/04 02:53:13;;;;;;;1.90;1.58;;;20.10;79.30;;;;;;4890248;28;95783;-47
2022/04/04 02:56:29;;;;;;;2.03;1.70;;;20.20;79.20;;;;;;4891189;28;95687;-52
2022/04/04 02:58:33;;;;;;;1.85;1.48;;;20.30;79.00;;;;;;4884777;28;96202;-47
2022/04/04 03:01:04;;;;;;;2.40;1.50;;;20.50;79.00;;;;;;4884009;28;95966;-47
2022/04/04 03:03:40;;;;;;;2.03;1.42;;;20.50;78.60;;;;;;4887162;28;96228;-49
2022/04/04 03:06:10;;;;;;;1.50;1.40;;;20.60;78.80;;;;;;4887085;28;95704;-48
2022/04/04 03:08:42;;;;;;;1.60;1.50;;;20.70;78.80;;;;;;4888507;28;96881;-53
2022/04/04 03:11:12;;;;;;;;;;;20.70;78.70;;;;;;4887741;28;95977;-47
2022/04/04 03:13:43;;;;;;;2.03;1.50;;;20.80;78.60;;;;;;4888750;28;96651;-52
2022/04/04 03:16:15;;;;;;;1.50;1.40;;;20.80;78.50;;;;;;4883821;28;95334;-47
2022/04/04 03:18:45;;;;;;;2.15;1.25;;;20.80;68.60;;;;;;4885128;28;96051;-48
2022/04/04 03:21:15;;;;;;;2.10;1.70;;;20.90;78.40;;;;;;4885689;28;95876;-49
2022/04/04 03:23:44;;;;;;;2.30;1.20;;;20.90;78.30;;;;;;4887432;28;95908;-49
2022/04/04 03:26:15;;;;;;;1.25;1.15;;;21.00;78.30;;;;;;4888520;28;95795;-48
2022/04/04 03:28:46;;;;;;;2.88;1.58;;;21.00;79.00;;;;;;4887075;28;97494;-46
2022/04/04 03:31:16;;;;;;;1.73;1.60;;;21.00;76.40;;;;;;4880061;28;96374;-51
2022/04/04 03:33:46;;;;;;;2.53;1.33;;;20.80;76.20;;;;;;4886007;28;95991;-51
2022/04/04 03:36:21;;;;;;;2.35;1.35;;;20.60;76.50;;;;;;4886845;28;95792;-49
2022/04/04 03:38:52;;;;;;;1.50;1.40;;;20.40;76.90;;;;;;4885156;28;96204;-47
2022/04/04 03:41:23;;;;;;;1.63;1.52;;;20.30;77.20;;;;;;4885898;28;95722;-49
2022/04/04 03:43:55;;;;;;;1.83;1.73;;;20.30;77.20;;;;;;4887573;28;95888;-52
2022/04/04 03:46:27;;;;;;;1.92;1.50;;;20.20;77.40;;;;;;4883359;28;96224;-50
2022/04/04 03:48:58;;;;;;;2.70;1.60;;;20.20;77.40;;;;;;4875773;28;96407;-48
2022/04/04 03:51:28;;;;;;;3.08;1.83;;;20.20;77.20;;;;;;4881604;28;96271;-47
2022/04/04 03:53:58;;;;;;;1.65;1.55;;;20.10;77.60;;;;;;4884915;28;96013;-51
2022/04/04 03:56:30;;;;;;;3.13;1.90;;;20.10;77.60;;;;;;4886843;28;95918;-49
2022/04/04 03:59:06;;;;;;;2.03;1.75;;;20.10;77.30;;;;;;4887229;28;96896;-46
2022/04/04 04:01:36;;;;;;;2.10;1.70;;;20.00;77.70;;;;;;4866002;28;95820;-47
2022/04/04 04:04:07;;;;;;;;;;;20.00;77.60;;;;;;4888877;28;95916;-46
2022/04/04 04:06:40;;;;;;;1.92;1.55;;;20.00;77.70;;;;;;4890856;28;95989;-49
2022/04/04 04:09:15;;;;;;;1.50;1.40;;;19.90;78.00;;;;;;4887404;28;96583;-50
2022/04/04 04:11:47;;;;;;;2.15;1.45;;;19.80;77.70;;;;;;4887286;28;95632;-49
2022/04/04 04:14:19;;;;;;;1.65;1.35;;;19.80;77.80;;;;;;4887190;28;95843;-48
2022/04/04 04:16:50;;;;;;;3.20;1.77;;;19.80;78.10;;;;;;4884146;28;95994;-48
2022/04/04 04:22:11;;;;;;;2.55;1.60;;;19.80;78.30;;;;;;4888006;28;96496;-48
2022/04/04 04:24:41;;;;;;;1.37;1.23;;;19.80;78.20;;;;;;4887368;28;95961;-48
2022/04/04 04:27:13;;;;;;;2.97;1.83;;;19.70;78.30;;;;;;4886350;28;95326;-48
2022/04/04 04:29:45;;;;;;;2.00;1.27;;;19.70;78.40;;;;;;4887548;28;95920;-48
2022/04/04 04:32:15;;;;;;;1.60;1.42;;;19.70;78.40;;;;;;4886515;28;95661;-48
2022/04/04 04:34:49;;;;;;;2.47;1.60;;;19.70;78.60;;;;;;4888689;28;95773;-49
2022/04/04 04:37:21;;;;;;;4.90;1.67;;;19.70;78.10;;;;;;4888130;28;96149;-50
2022/04/04 04:39:53;;;;;;;2.90;1.65;;;19.70;78.70;;;;;;4888095;28;95928;-47
2022/04/04 04:42:23;;;;;;;2.05;1.83;;;19.80;78.80;;;;;;4886965;28;95466;-47
2022/04/04 04:44:55;;;;;;;2.45;1.90;;;19.80;78.90;;;;;;4886597;28;95624;-54
2022/04/04 04:47:28;;;;;;;2.15;1.70;;;19.80;77.40;;;;;;4884153;28;95882;-48
2022/04/04 04:50:00;;;;;;;1.90;1.73;;;19.80;79.00;;;;;;4872566;28;95737;-52
2022/04/04 04:52:31;;;;;;;2.25;1.63;;;19.80;79.00;;;;;;4888921;28;96206;-54
2022/04/04 04:55:01;;;;;;;1.60;1.50;;;19.80;78.90;;;;;;4870854;28;95384;-51
2022/04/04 04:57:32;;;;;;;1.98;1.77;;;19.80;79.10;;;;;;4871117;28;96192;-47
2022/04/04 05:00:05;;;;;;;1.50;1.40;;;19.80;79.10;;;;;;4886620;28;97479;-48
2022/04/04 05:02:36;;;;;;;2.00;1.80;;;19.80;79.10;;;;;;4882310;28;95744;-49
2022/04/04 05:05:09;;;;;;;2.75;1.40;;;19.80;79.10;;;;;;4885289;28;95797;-49
2022/04/04 05:07:40;;;;;;;2.63;1.40;;;19.90;66.00;;;;;;4886503;28;95670;-48
2022/04/04 05:10:12;;;;;;;5.68;2.08;;;20.00;79.20;;;;;;4884980;28;96620;-48
2022/04/04 05:12:45;;;;;;;6.63;1.88;;;20.00;79.10;;;;;;4886400;28;96574;-49
2022/04/04 05:15:16;;;;;;;3.13;1.95;;;20.00;78.90;;;;;;4883116;28;96033;-52
2022/04/04 05:17:46;;;;;;;5.45;2.10;;;20.00;79.00;;;;;;4886371;28;96083;-51
2022/04/04 05:20:16;;;;;;;2.70;1.67;;;20.00;79.20;;;;;;4886661;28;96020;-49
2022/04/04 05:22:48;;;;;;;6.53;1.70;;;20.00;79.30;;;;;;4886621;28;95902;-52
2022/04/04 05:25:19;;;;;;;4.38;1.58;;;20.00;79.10;;;;;;4887007;28;96030;-47
2022/04/04 05:27:50;;;;;;;2.83;1.92;;;20.00;79.10;;;;;;4888555;28;95340;-48
2022/04/04 05:30:20;;;;;;;3.50;1.52;;;20.00;79.10;;;;;;4884540;28;96610;-47
2022/04/04 05:32:51;;;;;;;3.95;1.67;;;20.00;79.20;;;;;;4888838;28;95668;-45
2022/04/04 05:35:23;;;;;;;6.53;1.75;;;20.00;66.20;;;;;;4886357;28;98259;-47
2022/04/04 05:37:55;;;;;;;3.97;1.70;;;20.00;79.10;;;;;;4890900;28;95919;-52
2022/04/04 05:40:27;;;;;;;3.78;1.73;;;20.00;73.30;;;;;;4890023;28;95956;-46
2022/04/04 05:43:00;;;;;;;6.03;1.60;;;20.10;79.00;;;;;;4890594;28;95796;-46
2022/04/04 05:45:31;;;;;;;5.22;1.52;;;20.00;78.90;;;;;;4892433;28;97075;-48
2022/04/04 05:48:09;;;;;;;2.22;1.60;;;20.00;78.90;;;;;;4884526;28;95392;-48
2022/04/04 05:50:39;;;;;;;;;;;20.00;78.90;;;;;;4877944;28;96567;-48
2022/04/04 05:53:10;;;;;;;1.38;1.17;;;20.00;78.90;;;;;;4890136;28;96866;-50
2022/04/04 05:55:40;;;;;;;4.50;1.60;;;20.00;79.00;;;;;;4891685;28;95715;-47
2022/04/04 05:58:10;;;;;;;2.08;1.20;;;19.90;79.00;;;;;;4890499;28;95275;-51
2022/04/04 06:00:40;;;;;;;1.58;1.48;;;19.90;79.00;;;;;;4886931;28;97432;-47
2022/04/04 06:03:11;;;;;;;1.83;1.55;;;19.90;79.10;;;;;;4890584;28;95976;-47
2022/04/04 06:05:43;;;;;;;2.35;1.60;;;19.90;79.10;;;;;;4888186;28;96028;-47
2022/04/04 06:08:14;;;;;;;3.33;1.63;;;19.80;79.10;;;;;;4889364;28;96022;-49
2022/04/04 06:10:46;;;;;;;2.63;1.80;;;19.80;79.40;;;;;;4889957;28;96132;-49
2022/04/04 06:13:19;;;;;;;5.50;1.55;;;19.80;79.30;;;;;;4887735;28;96569;-50
2022/04/04 06:15:51;;;;;;;5.63;1.80;;;19.80;79.70;;;;;;4887731;28;95688;-49
2022/04/04 06:18:22;;;;;;;3.35;1.60;;;19.90;79.50;;;;;;4888437;28;95928;-51
2022/04/04 06:20:53;;;;;;;4.72;1.65;;;19.90;79.30;;;;;;4887597;28;96458;-46
2022/04/04 06:23:24;;;;;;;2.75;1.58;;;19.90;79.50;;;;;;4886097;28;96242;-45
2022/04/04 06:25:56;;;;;;;2.22;1.70;;;19.90;79.40;;;;;;4888617;28;95447;-47
2022/04/04 06:28:27;;;;;;;7.00;1.57;;;19.90;79.20;;;;;;4888212;28;95837;-48
2022/04/04 06:30:59;;;;;;;4.68;1.45;;;19.90;79.50;;;;;;4888125;28;96021;-48
2022/04/04 06:33:29;;;;;;;;;;;19.90;79.70;;;;;;4889469;28;96020;-43
2022/04/04 06:36:00;;;;;;;1.23;1.10;;;19.90;79.40;;;;;;4888472;28;95719;-47
2022/04/04 06:38:32;;;;;;;;;;;19.90;79.20;;;;;;4888701;28;95437;-43
2022/04/04 06:41:03;;;;;;;2.30;1.17;;;20.00;79.60;;;;;;4885699;28;96629;-45
2022/04/04 06:43:33;;;;;;;;;;;20.20;79.40;;;;;;4889029;28;96156;-46
2022/04/04 06:46:06;;;;;;;2.42;1.50;;;20.30;79.10;;;;;;4883862;28;95799;-45
2022/04/04 06:48:37;;;;;;;1.45;1.10;;;20.40;78.90;;;;;;4885829;28;95909;-47
2022/04/04 06:51:11;;;;;;;2.42;1.02;;;20.50;78.80;;;;;;4880584;28;98178;-49
2022/04/04 06:53:45;;;;;;;2.15;1.10;;;20.60;78.80;;;;;;4886292;28;96918;-52
2022/04/04 06:56:17;;;;;;;4.10;1.85;;;20.60;78.70;;;;;;4887102;28;95828;-51
2022/04/04 06:58:48;;;;;;;1.88;1.60;;;20.60;77.60;;;;;;4888503;28;97609;-51
2022/04/04 07:01:19;;;;;;;2.67;1.80;;;20.50;77.60;;;;;;4883759;28;96248;-47
2022/04/04 07:03:50;;;;;;;2.53;1.75;;;20.40;77.70;;;;;;4888958;28;95946;-49
2022/04/04 07:06:21;;;;;;;5.57;1.75;;;20.30;78.30;;;;;;4886817;28;95865;-48
2022/04/04 07:08:52;;;;;;;5.07;1.83;;;20.30;78.50;;;;;;4887416;28;95481;-46
2022/04/04 07:11:23;;;;;;;3.65;1.80;;;20.30;78.60;;;;;;4887752;28;95978;-50
2022/04/04 07:13:54;;;;;;;;;;;20.20;78.50;;;;;;4886591;28;96002;-47
2022/04/04 07:16:25;;;;;;;2.67;1.95;;;20.20;78.70;;;;;;4881346;28;95974;-44
2022/04/04 07:18:55;;;;;;;4.20;1.65;;;20.20;78.40;;;;;;4887399;28;96270;-57
2022/04/04 07:21:25;;;;;;;2.25;1.67;;;20.20;78.70;;;;;;4888732;28;96556;-44
2022/04/04 07:23:55;;;;;;;4.28;1.48;;;20.20;78.80;;;;;;4888016;28;95845;-44
2022/04/04 07:26:29;;;;;;;2.78;1.40;;;20.20;78.80;;;;;;4889048;28;95337;-45
2022/04/04 07:28:59;;;;;;;2.65;1.77;;;20.10;78.70;;;;;;4887895;28;95995;-49
2022/04/04 07:31:29;;;;;;;3.70;1.70;;;20.10;78.90;;;;;;4880936;28;96036;-50
2022/04/04 07:34:00;;;;;;;1.35;1.27;;;20.10;78.90;;;;;;4887767;28;95699;-48
2022/04/04 07:36:32;;;;;;;2.83;1.25;;;20.20;66.50;;;;;;4870114;28;95744;-46
2022/04/04 07:39:05;;;;;;;1.83;1.60;;;20.10;78.90;;;;;;4883601;28;96203;-50
2022/04/04 07:41:36;;;;;;;2.28;1.75;;;20.10;79.00;;;;;;4885668;28;95879;-47
2022/04/04 07:44:07;;;;;;;2.40;1.40;;;20.10;79.00;;;;;;4887087;28;96021;-46
2022/04/04 07:46:39;;;;;;;2.15;1.98;;;20.00;79.00;;;;;;4879010;28;96992;-46
2022/04/04 07:49:10;;;;;;;;;;;20.10;79.20;;;;;;4887827;28;95959;-44
2022/04/04 07:51:40;;;;;;;2.40;1.83;;;20.10;79.20;;;;;;4878668;28;96112;-46
2022/04/04 07:54:12;;;;;;;3.00;1.27;;;20.10;79.20;;;;;;4887374;28;96436;-46
2022/04/04 07:56:43;;;;;;;2.20;1.60;;;20.10;79.50;;;;;;4888688;28;95828;-46
2022/04/04 07:59:13;;;;;;;2.22;2.03;;;20.10;80.00;;;;;;4886020;28;95942;-47
2022/04/04 08:01:44;;;;;;;1.83;1.67;;;20.10;79.30;;;;;;4883620;28;96538;-48
2022/04/04 08:04:17;;;;;;;1.65;1.52;;;20.10;79.30;;;;;;4885087;28;95965;-45
2022/04/04 08:06:50;;;;;;;1.67;1.40;;;20.10;79.40;;;;;;4888224;28;96018;-49
2022/04/04 08:09:21;;;;;;;1.95;1.50;;;20.10;79.50;;;;;;4870704;28;95846;-47
2022/04/04 08:11:54;;;;;;;;;;;20.10;79.40;;;;;;4871721;28;98110;-47
2022/04/04 08:14:25;;;;;;;1.58;1.27;;;20.10;79.50;;;;;;4892167;28;95934;-47
2022/04/04 08:16:56;;;;;;;1.73;1.60;;;20.10;79.50;;;;;;4863521;28;95725;-47
2022/04/04 08:19:28;;;;;;;2.42;2.22;;;20.10;79.60;;;;;;4887127;28;96221;-46
2022/04/04 08:22:00;;;;;;;2.65;1.88;;;20.10;79.60;;;;;;4886802;28;96015;-50
2022/04/04 08:24:30;;;;;;;4.10;2.00;;;20.10;79.70;;;;;;4887809;28;96023;-48
2022/04/04 08:27:00;;;;;;;1.73;1.63;;;20.00;79.80;;;;;;4890251;28;95803;-49
2022/04/04 08:29:29;;;;;;;1.88;1.50;;;20.10;79.90;;;;;;4870690;28;95831;-50
2022/04/04 08:32:00;;;;;;;2.28;1.95;;;20.10;79.90;;;;;;4889405;28;95963;-49
2022/04/04 08:34:33;;;;;;;2.10;2.00;;;20.00;79.90;;;;;;4888669;28;95858;-47
2022/04/04 08:37:05;;;;;;;1.80;1.70;;;20.00;80.00;;;;;;4886078;28;95825;-50
2022/04/04 08:39:37;;;;;;;3.63;2.05;;;20.00;80.20;;;;;;4888350;28;95992;-48
2022/04/04 08:42:07;;;;;;;2.60;2.40;;;20.00;80.70;;;;;;4889716;28;96509;-48
2022/04/04 08:44:41;;;;;;;2.22;2.08;;;20.00;80.70;;;;;;4887486;28;95685;-52
2022/04/04 08:47:12;;;;;;;3.08;1.65;;;20.00;81.10;;;;;;4885484;28;95591;-50
2022/04/04 08:49:43;;;;;;;2.25;1.80;;;20.00;81.50;;;;;;4890282;28;96175;-49
2022/04/04 08:52:15;;;;;;;2.42;1.67;;;20.10;81.40;;;;;;4879972;28;96607;-50
2022/04/04 08:54:50;;;;;;;2.22;2.03;;;20.10;81.20;;;;;;4885672;28;95813;-49
2022/04/04 08:57:22;;;;;;;2.38;2.17;;;20.10;81.30;;;;;;4888670;28;95852;-46
2022/04/04 08:59:52;;;;;;;2.05;1.95;;;20.10;81.40;;;;;;4872155;28;95878;-46
2022/04/04 09:02:22;;;;;;;2.70;2.05;;;20.10;81.60;;;;;;4884720;28;96597;-49
2022/04/04 09:05:03;;;;;;;3.58;2.33;;;20.10;81.40;;;;;;4889610;28;95880;-47
2022/04/04 09:07:54;;;;;;;2.92;2.17;;;20.10;81.40;;;;;;4890225;28;96083;-47
2022/04/04 09:10:32;;;;;;;3.10;1.98;;;20.10;81.30;;;;;;4887544;28;96572;-45
2022/04/04 09:13:14;;;;;;;3.83;2.50;;;20.00;81.10;;;;;;4889015;28;97285;-46
2022/04/04 09:16:02;;;;;;;3.58;2.22;;;20.00;81.10;;;;;;4869715;28;98069;-46
2022/04/04 09:18:41;;;;;;;2.55;1.83;;;20.00;81.20;;;;;;4889194;28;95754;-45
2022/04/04 09:21:31;;;;;;;2.42;1.75;;;20.00;81.20;;;;;;4888236;28;95707;-47
2022/04/04 09:24:07;;;;;;;3.08;2.10;;;19.90;81.00;;;;;;4890704;28;95953;-46
2022/04/04 09:26:41;;;;;;;2.30;2.00;;;19.90;81.00;;;;;;4872265;28;95622;-50
2022/04/04 09:29:11;;;;;;;2.00;1.70;;;19.90;81.00;;;;;;4891354;28;95812;-47
2022/04/04 09:31:58;;;;;;;2.90;1.90;;;19.90;81.00;;;;;;4888777;28;95771;-45
2022/04/04 09:34:29;;;;;;;6.55;2.20;;;19.80;81.10;;;;;;4890848;28;96446;-46
2022/04/04 09:37:00;;;;;;;3.63;2.38;;;19.90;81.00;;;;;;4891625;28;95942;-47
2022/04/04 09:39:35;;;;;;;4.47;2.80;;;19.90;81.00;;;;;;4891308;28;95289;-48
2022/04/04 09:42:21;;;;;;;2.85;2.00;;;19.80;81.00;;;;;;4888831;28;96076;-47
2022/04/04 09:45:01;;;;;;;2.58;2.00;;;19.80;81.00;;;;;;4886342;28;97451;-49
2022/04/04 09:47:50;;;;;;;4.90;2.90;;;19.80;80.80;;;;;;4883827;28;96140;-49
2022/04/04 09:50:37;;;;;;;3.25;2.38;;;19.80;80.90;;;;;;4882438;28;95440;-47
2022/04/04 09:53:19;;;;;;;5.45;3.28;;;19.80;80.80;;;;;;4886254;28;96478;-49
2022/04/04 09:55:58;;;;;;;5.15;3.00;;;19.80;81.00;;;;;;4890689;28;96808;-47
2022/04/04 09:58:31;;;;;;;6.75;3.60;;;19.70;80.90;;;;;;4888424;28;97199;-46
2022/04/04 10:01:03;;;;;;;9.80;4.53;;;19.70;80.90;;;;;;4884790;28;96611;-52
2022/04/04 10:03:38;;;;;;;8.52;4.82;;;19.70;80.90;;;;;;4888726;28;96016;-52
2022/04/04 10:06:13;;;;;;;10.10;5.15;;;19.70;81.00;;;;;;4890813;28;96368;-51
2022/04/04 10:08:54;;;;;;;8.38;5.00;;;19.70;80.90;;;;;;4888492;28;95934;-51
2022/04/04 10:11:25;;;;;;;11.30;5.78;;;19.60;81.40;;;;;;4888560;28;95522;-51
2022/04/04 10:13:57;;;;;;;8.82;5.55;;;19.70;80.90;;;;;;4889931;28;98156;-52
2022/04/04 10:16:28;;;;;;;12.85;6.13;;;19.60;80.80;;;;;;4882735;28;96571;-48
2022/04/04 10:19:00;;;;;;;12.05;5.95;;;19.70;68.70;;;;;;4887348;28;95991;-48
2022/04/04 10:21:30;;;;;;;14.25;7.00;;;19.60;80.80;;;;;;4887227;28;96886;-49
2022/04/04 10:24:07;;;;;;;13.30;7.32;;;19.60;80.90;;;;;;4871486;28;95868;-46
2022/04/04 10:26:38;;;;;;;11.13;6.95;;;19.60;80.90;;;;;;4888833;28;96172;-47
2022/04/04 10:29:09;;;;;;;12.75;6.75;;;19.50;80.80;;;;;;4887886;28;97458;-50
2022/04/04 10:31:59;;;;;;;8.98;5.40;;;19.50;80.80;;;;;;4886128;28;96041;-48
2022/04/04 10:34:40;;;;;;;10.13;6.05;;;19.50;80.70;;;;;;4885710;28;96005;-46
2022/04/04 10:37:11;;;;;;;12.05;6.30;;;19.50;80.80;;;;;;4889713;28;96849;-46
2022/04/04 10:39:48;;;;;;;9.57;5.60;;;19.50;80.70;;;;;;4887320;28;95913;-48
2022/04/04 10:42:33;;;;;;;10.18;6.13;;;19.50;80.70;;;;;;4888544;28;95367;-48
2022/04/04 10:45:10;;;;;;;9.00;6.28;;;19.50;80.70;;;;;;4889423;28;96047;-46
2022/04/04 10:47:46;;;;;;;8.77;6.32;;;19.50;80.70;;;;;;4886871;28;96475;-47
2022/04/04 10:50:24;;;;;;;8.02;5.45;;;19.50;80.50;;;;;;4883973;28;95931;-51
2022/04/04 10:53:00;;;;;;;9.40;6.13;;;19.50;80.80;;;;;;4882770;28;95593;-47
2022/04/04 10:55:44;;;;;;;8.80;6.00;;;19.60;68.50;;;;;;4890665;28;95836;-48
2022/04/04 10:58:22;;;;;;;8.55;5.85;;;19.50;80.40;;;;;;4871314;28;98528;-46
2022/04/04 11:01:09;;;;;;;9.80;6.45;;;19.50;80.20;;;;;;4883953;28;95942;-49
2022/04/04 11:03:52;;;;;;;11.57;6.60;;;19.50;80.30;;;;;;4889236;28;95952;-49
2022/04/04 11:09:53;;;;;;;7.28;6.22;;;19.40;80.30;;;;;;4888340;28;95853;-48
2022/04/04 11:12:28;;;;;;;8.82;6.07;;;19.40;80.20;;;;;;4886925;28;96079;-47
2022/04/04 11:15:07;;;;;;;9.77;6.32;;;19.40;80.40;;;;;;4893796;28;95668;-53
2022/04/04 11:18:00;;;;;;;8.98;5.80;;;19.40;80.50;;;;;;4885028;28;95937;-46
2022/04/04 11:20:33;;;;;;;7.78;5.53;;;19.40;80.90;;;;;;4888762;28;96543;-51
2022/04/04 11:23:10;;;;;;;7.63;5.63;;;19.50;67.40;;;;;;4887221;28;98491;-49
2022/04/04 11:25:53;;;;;;;8.57;5.40;;;19.40;79.60;;;;;;4887413;28;95981;-47
2022/04/04 11:28:31;;;;;;;6.97;5.30;;;19.30;79.50;;;;;;4888610;28;95596;-47
2022/04/04 11:31:07;;;;;;;7.68;4.57;;;19.30;79.50;;;;;;4885620;28;96162;-47
2022/04/04 11:33:54;;;;;;;7.72;5.43;;;19.30;79.40;;;;;;4888621;28;95906;-48
2022/04/04 11:36:30;;;;;;;6.75;5.22;;;19.30;79.40;;;;;;4889648;28;95724;-49
2022/04/04 11:39:03;;;;;;;7.65;5.13;;;19.20;79.40;;;;;;4871906;28;95527;-47
2022/04/04 11:41:46;;;;;;;8.10;5.13;;;19.20;79.30;;;;;;4870020;28;96396;-48
2022/04/04 11:44:27;;;;;;;7.97;5.00;;;19.20;79.20;;;;;;4888927;28;95812;-48
2022/04/04 11:47:09;;;;;;;7.95;4.78;;;19.20;79.50;;;;;;4887966;28;95757;-50
2022/04/04 11:49:44;;;;;;;8.38;4.93;;;19.00;77.90;;;;;;4891129;28;95899;-48
2022/04/04 11:52:18;;;;;;;7.85;4.88;;;18.90;78.30;;;;;;4881672;28;96719;-45
2022/04/04 11:54:56;;;;;;;7.70;5.05;;;19.00;78.00;;;;;;4893093;28;95988;-47
2022/04/04 11:57:26;;;;;;;10.90;5.57;;;19.00;77.60;;;;;;4892174;28;95908;-46
2022/04/04 11:59:57;;;;;;;10.98;6.20;;;19.20;78.40;;;;;;4894875;28;95850;-47
2022/04/04 12:02:42;;;;;;;8.32;5.05;;;19.30;76.90;;;;;;4892064;28;96080;-51
2022/04/04 12:05:16;;;;;;;8.27;6.00;;;19.40;77.80;;;;;;4888861;28;95968;-52
2022/04/04 12:07:50;;;;;;;8.93;5.75;;;19.50;76.10;;;;;;4893597;28;95676;-45
2022/04/04 12:10:33;;;;;;;10.48;5.82;;;19.60;76.60;;;;;;4894168;28;96159;-51
2022/04/04 12:13:13;;;;;;;9.57;6.28;;;19.60;76.00;;;;;;4891359;28;95393;-50
2022/04/04 12:15:46;;;;;;;7.32;5.65;;;19.70;75.40;;;;;;4873920;28;95842;-52
2022/04/04 12:18:29;;;;;;;8.88;5.95;;;19.80;75.00;;;;;;4892624;28;95686;-45
2022/04/04 12:21:02;;;;;;;8.45;5.90;;;19.80;75.30;;;;;;4891804;28;96171;-50
2022/04/04 12:26:24;;;;;;;5.50;4.78;;;20.00;77.70;;;;;;4891852;28;95830;-50
2022/04/04 12:28:54;;;;;;;7.15;4.75;;;20.40;76.80;;;;;;4892854;28;95392;-54
2022/04/04 12:31:30;;;;;;;6.53;4.50;;;20.70;76.20;;;;;;4889311;28;95776;-47
2022/04/04 12:34:07;;;;;;;6.13;4.50;;;20.90;75.70;;;;;;4890733;28;96451;-49
2022/04/04 12:36:41;;;;;;;5.78;4.93;;;21.00;75.30;;;;;;4892414;28;95889;-48
2022/04/04 12:39:16;;;;;;;6.00;4.30;;;21.20;75.10;;;;;;4893366;28;95589;-49
2022/04/04 12:41:53;;;;;;;5.30;4.60;;;21.30;75.10;;;;;;4895597;28;95908;-50
2022/04/04 12:44:29;;;;;;;5.47;4.32;;;21.40;74.50;;;;;;4895787;28;95873;-50
2022/04/04 12:47:12;;;;;;;4.90;4.00;;;21.40;74.30;;;;;;4891180;28;96218;-51
2022/04/04 12:49:44;;;;;;;4.82;4.30;;;21.50;74.30;;;;;;4892367;28;95427;-50
2022/04/04 12:52:31;;;;;;;4.78;4.20;;;21.60;74.10;;;;;;4888676;28;95740;-49
2022/04/04 12:55:15;;;;;;;6.00;5.18;;;21.70;73.90;;;;;;4875425;28;96234;-50
2022/04/04 12:57:45;;;;;;;6.63;5.10;;;21.60;72.30;;;;;;4891948;28;95888;-50
2022/04/04 13:00:38;;;;;;;8.63;5.38;;;21.40;72.10;;;;;;4892464;28;95732;-48
2022/04/04 13:03:28;;;;;;;6.28;5.00;;;21.20;73.00;;;;;;4889785;28;95442;-52
2022/04/04 13:06:01;;;;;;;6.00;5.18;;;21.00;73.30;;;;;;4893106;28;96586;-52
2022/04/04 13:08:31;;;;;;;8.05;5.05;;;21.00;73.50;;;;;;4894751;28;95991;-49
2022/04/04 13:11:05;;;;;;;6.32;4.60;;;20.90;73.70;;;;;;4893399;28;97311;-51
2022/04/04 13:13:56;;;;;;;9.75;5.75;;;20.90;73.80;;;;;;4895471;28;95489;-49
2022/04/04 13:16:43;;;;;;;7.45;5.10;;;20.80;73.90;;;;;;4891149;28;96539;-50
2022/04/04 13:19:15;;;;;;;7.70;5.82;;;20.80;61.30;;;;;;4893280;28;95914;-50
2022/04/04 13:21:51;;;;;;;6.78;4.97;;;20.70;74.00;;;;;;4894009;28;98076;-51
2022/04/04 13:24:23;;;;;;;9.00;4.75;;;20.70;74.00;;;;;;4892902;28;95362;-46
2022/04/04 13:26:53;;;;;;;7.93;5.28;;;20.80;74.30;;;;;;4892032;28;96390;-46
2022/04/04 13:29:23;;;;;;;6.07;5.37;;;21.00;74.00;;;;;;4891727;28;95308;-50
2022/04/04 13:31:56;;;;;;;6.57;4.60;;;21.20;73.70;;;;;;4889930;28;97198;-49